createdAt,value
2022-09-07T00:01:20.765Z,2.58
2022-09-07T00:03:48.858Z,2.25
2022-09-07T00:06:17.612Z,2.20
2022-09-07T00:08:47.761Z,2.22
2022-09-07T00:11:19.149Z,2.40
2022-09-07T00:13:50.974Z,2.10
2022-09-07T00:16:23.422Z,2.25
2022-09-07T00:18:53.859Z,2.17
2022-09-07T00:21:22.270Z,2.28
2022-09-07T00:23:52.078Z,2.30
2022-09-07T00:26:23.816Z,2.15
2022-09-07T00:28:53.244Z,2.45
2022-09-07T00:31:23.983Z,2.20
2022-09-07T00:33:54.932Z,1.88
2022-09-07T00:36:24.422Z,1.65
2022-09-07T00:38:54.196Z,2.30
2022-09-07T00:41:24.237Z,1.92
2022-09-07T00:43:55.441Z,2.55
2022-09-07T00:46:27.144Z,2.35
2022-09-07T00:49:09.676Z,2.20
2022-09-07T00:51:44.834Z,2.28
2022-09-07T00:54:20.133Z,2.08
2022-09-07T00:56:52.347Z,2.55
2022-09-07T00:59:26.292Z,1.95
2022-09-07T01:01:56.249Z,2.20
2022-09-07T01:04:27.471Z,2.08
2022-09-07T01:06:58.081Z,2.10
2022-09-07T01:09:30.123Z,2.25
2022-09-07T01:12:02.702Z,2.05
2022-09-07T01:14:38.382Z,2.13
2022-09-07T01:17:19.848Z,2.30
2022-09-07T01:20:29.339Z,2.25
2022-09-07T01:23:44.470Z,2.30
2022-09-07T01:26:44.664Z,2.10
2022-09-07T01:29:23.017Z,2.30
2022-09-07T01:32:01.563Z,1.85
2022-09-07T01:34:31.205Z,1.90
2022-09-07T01:37:09.244Z,2.22
2022-09-07T01:39:49.675Z,2.25
2022-09-07T01:42:24.812Z,2.13
2022-09-07T01:44:59.848Z,2.03
2022-09-07T01:47:35.595Z,2.97
2022-09-07T01:50:11.348Z,2.45
2022-09-07T01:52:49.115Z,2.40
2022-09-07T01:55:26.015Z,2.30
2022-09-07T01:58:01.214Z,2.70
2022-09-07T02:00:35.241Z,2.70
2022-09-07T02:03:14.277Z,2.08
2022-09-07T02:05:53.265Z,2.50
2022-09-07T02:08:29.854Z,2.63
2022-09-07T02:11:06.181Z,2.63
2022-09-07T02:13:41.537Z,2.20
2022-09-07T02:16:16.460Z,2.50
2022-09-07T02:18:48.561Z,2.00
2022-09-07T02:21:23.480Z,2.25
2022-09-07T02:23:58.349Z,1.95
2022-09-07T02:26:30.511Z,2.17
2022-09-07T02:28:59.101Z,2.00
2022-09-07T02:31:29.444Z,2.10
2022-09-07T02:33:58.142Z,2.03
2022-09-07T02:36:33.601Z,2.17
2022-09-07T02:39:01.970Z,2.08
2022-09-07T02:41:35.135Z,2.08
2022-09-07T02:44:08.591Z,2.10
2022-09-07T02:47:07.306Z,2.30
2022-09-07T02:50:04.809Z,2.60
2022-09-07T02:52:47.301Z,2.20
2022-09-07T02:55:32.540Z,2.20
2022-09-07T02:58:17.026Z,2.30
2022-09-07T03:00:55.341Z,2.03
2022-09-07T03:03:37.173Z,2.08
2022-09-07T03:06:14.790Z,2.20
2022-09-07T03:08:50.425Z,2.47
2022-09-07T03:11:19.013Z,2.15
2022-09-07T03:13:47.186Z,2.15
2022-09-07T03:16:16.569Z,2.10
2022-09-07T03:18:46.539Z,2.45
2022-09-07T03:21:14.684Z,2.63
2022-09-07T03:23:43.408Z,1.90
2022-09-07T03:26:24.781Z,2.35
2022-09-07T03:28:52.920Z,1.98
2022-09-07T03:31:21.591Z,2.22
2022-09-07T03:33:51.043Z,2.03
2022-09-07T03:36:19.187Z,1.90
2022-09-07T03:38:47.488Z,2.10
2022-09-07T03:41:16.159Z,2.30
2022-09-07T03:43:44.489Z,1.98
2022-09-07T03:46:15.102Z,2.50
2022-09-07T03:48:43.761Z,2.08
2022-09-07T03:51:17.234Z,1.95
2022-09-07T03:53:47.985Z,2.08
2022-09-07T03:56:20.411Z,2.63
2022-09-07T03:58:51.123Z,2.40
2022-09-07T04:01:22.677Z,2.15
2022-09-07T04:03:51.576Z,2.20
2022-09-07T04:06:21.710Z,2.13
2022-09-07T04:08:49.820Z,2.30
2022-09-07T04:11:20.802Z,1.95
2022-09-07T04:13:49.028Z,2.30
2022-09-07T04:16:21.396Z,2.20
2022-09-07T04:18:51.463Z,1.75
2022-09-07T04:21:21.545Z,3.15
2022-09-07T04:23:50.423Z,2.63
2022-09-07T04:26:22.347Z,2.22
2022-09-07T04:28:51.767Z,2.65
2022-09-07T04:31:21.250Z,2.28
2022-09-07T04:33:51.474Z,2.17
2022-09-07T04:36:22.764Z,1.90
2022-09-07T04:38:57.146Z,2.10
2022-09-07T04:41:25.797Z,2.28
2022-09-07T04:43:56.005Z,2.00
2022-09-07T04:46:27.027Z,1.83
2022-09-07T04:48:57.713Z,2.67
2022-09-07T04:51:30.597Z,3.17
2022-09-07T04:54:01.595Z,1.98
2022-09-07T04:56:31.056Z,2.15
2022-09-07T04:58:59.993Z,1.83
2022-09-07T05:01:29.314Z,2.30
2022-09-07T05:03:57.490Z,2.40
2022-09-07T05:06:27.040Z,2.83
2022-09-07T05:08:56.587Z,2.38
2022-09-07T05:11:29.392Z,2.92
2022-09-07T05:13:58.850Z,2.65
2022-09-07T05:16:28.740Z,2.20
2022-09-07T05:18:59.943Z,2.25
2022-09-07T05:21:32.218Z,2.38
2022-09-07T05:24:01.842Z,2.28
2022-09-07T05:26:34.038Z,2.22
2022-09-07T05:31:52.889Z,2.30
2022-09-07T05:36:58.299Z,2.92
2022-09-07T05:39:27.789Z,2.80
2022-09-07T05:41:56.393Z,1.90
2022-09-07T05:47:13.817Z,2.90
2022-09-07T05:49:41.946Z,2.30
2022-09-07T05:52:11.989Z,2.83
2022-09-07T05:54:40.889Z,3.42
2022-09-07T05:57:11.778Z,7.28
2022-09-07T05:59:40.072Z,5.50
2022-09-07T06:02:09.176Z,4.80
2022-09-07T06:04:37.363Z,4.43
2022-09-07T06:07:21.142Z,4.57
2022-09-07T06:12:39.988Z,4.20
2022-09-07T06:15:10.370Z,5.30
2022-09-07T06:17:38.504Z,4.25
2022-09-07T06:20:09.065Z,4.40
2022-09-07T06:22:37.466Z,3.88
2022-09-07T06:25:08.721Z,3.53
2022-09-07T06:27:36.986Z,4.55
2022-09-07T06:30:07.352Z,3.42
2022-09-07T06:35:09.985Z,2.55
2022-09-07T06:37:38.481Z,2.38
2022-09-07T06:40:10.475Z,2.30
2022-09-07T06:42:42.029Z,3.08
2022-09-07T06:45:12.266Z,2.40
2022-09-07T06:47:41.081Z,2.90
2022-09-07T06:50:12.409Z,3.30
2022-09-07T06:55:30.027Z,2.60
2022-09-07T06:57:58.151Z,2.83
2022-09-07T07:00:26.635Z,2.70
2022-09-07T07:02:54.733Z,2.85
2022-09-07T07:05:23.056Z,2.60
2022-09-07T07:07:51.290Z,1.80
2022-09-07T07:10:24.284Z,2.15
2022-09-07T07:12:57.493Z,2.25
2022-09-07T07:15:28.945Z,2.15
2022-09-07T07:18:02.548Z,2.47
2022-09-07T07:20:44.142Z,1.95
2022-09-07T07:23:13.488Z,2.33
2022-09-07T07:25:41.551Z,2.20
2022-09-07T07:31:06.067Z,2.13
2022-09-07T07:33:39.153Z,1.95
2022-09-07T07:36:13.600Z,2.00
2022-09-07T07:44:22.214Z,2.30
2022-09-07T07:46:51.271Z,2.38
2022-09-07T07:49:19.660Z,1.92
2022-09-07T07:54:36.931Z,2.10
2022-09-07T07:57:05.704Z,2.33
2022-09-07T07:59:35.909Z,2.30
2022-09-07T08:02:05.959Z,1.90
2022-09-07T08:04:35.494Z,1.92
2022-09-07T08:07:10.100Z,2.10
2022-09-07T08:09:39.250Z,2.13
2022-09-07T08:12:08.594Z,2.78
2022-09-07T08:14:41.699Z,1.98
2022-09-07T08:17:11.261Z,2.13
2022-09-07T08:19:40.210Z,2.75
2022-09-07T08:22:10.919Z,2.38
2022-09-07T08:24:39.494Z,2.25
2022-09-07T08:27:08.120Z,1.83
2022-09-07T08:29:38.061Z,2.30
2022-09-07T08:32:07.512Z,2.00
2022-09-07T08:34:38.490Z,2.20
2022-09-07T08:37:06.648Z,2.35
2022-09-07T08:39:36.181Z,2.35
2022-09-07T08:42:22.572Z,2.13
2022-09-07T08:44:59.663Z,2.22
2022-09-07T08:47:38.923Z,2.25
2022-09-07T08:50:15.952Z,2.13
2022-09-07T08:52:51.306Z,2.47
2022-09-07T08:55:29.161Z,2.40
2022-09-07T08:58:14.550Z,2.25
2022-09-07T09:06:48.906Z,2.72
2022-09-07T09:09:35.133Z,2.15
2022-09-07T09:12:17.162Z,2.05
2022-09-07T09:15:05.889Z,2.78
2022-09-07T09:17:41.659Z,2.25
2022-09-07T09:20:26.075Z,2.30
2022-09-07T09:23:04.261Z,2.38
2022-09-07T09:25:35.493Z,2.03
2022-09-07T09:28:04.386Z,2.30
2022-09-07T09:30:33.198Z,2.25
2022-09-07T09:33:20.707Z,2.47
2022-09-07T09:35:51.304Z,2.35
2022-09-07T09:38:35.141Z,2.33
2022-09-07T09:41:07.645Z,2.13
2022-09-07T09:43:44.677Z,2.22
2022-09-07T09:46:27.030Z,2.13
2022-09-07T09:49:01.099Z,2.10
2022-09-07T09:54:33.015Z,2.38
2022-09-07T09:57:01.776Z,2.13
2022-09-07T10:05:29.947Z,2.20
2022-09-07T10:07:58.718Z,2.08
2022-09-07T10:10:32.045Z,1.90
2022-09-07T10:13:00.766Z,2.10
2022-09-07T10:15:40.024Z,2.05
2022-09-07T10:18:21.189Z,2.47
2022-09-07T10:20:50.897Z,2.50
2022-09-07T10:23:25.321Z,2.08
2022-09-07T10:25:53.727Z,2.08
2022-09-07T10:28:24.517Z,2.15
2022-09-07T10:31:17.209Z,1.92
2022-09-07T10:37:04.668Z,2.33
2022-09-07T10:39:39.035Z,1.88
2022-09-07T10:42:25.942Z,2.05
2022-09-07T10:45:10.962Z,1.90
2022-09-07T10:47:57.595Z,2.15
2022-09-07T10:50:33.811Z,2.00
2022-09-07T10:53:42.436Z,2.30
2022-09-07T10:56:19.294Z,1.90
2022-09-07T10:59:08.293Z,2.05
2022-09-07T11:01:55.352Z,2.10
2022-09-07T11:04:50.253Z,2.17
2022-09-07T11:07:39.958Z,1.98
2022-09-07T11:10:25.344Z,2.00
2022-09-07T11:12:57.287Z,2.17
2022-09-07T11:15:31.799Z,1.70
2022-09-07T11:18:06.648Z,1.73
2022-09-07T11:20:39.807Z,1.98
2022-09-07T11:23:22.168Z,1.60
2022-09-07T11:26:02.573Z,1.88
2022-09-07T11:28:44.762Z,2.08
2022-09-07T11:31:23.846Z,1.52
2022-09-07T11:36:59.693Z,1.65
2022-09-07T11:39:35.315Z,1.60
2022-09-07T11:45:16.908Z,2.03
2022-09-07T11:47:51.614Z,1.80
2022-09-07T11:50:23.909Z,1.60
2022-09-07T11:52:57.074Z,1.60
2022-09-07T11:55:30.965Z,1.73
2022-09-07T11:58:31.083Z,1.63
2022-09-07T12:01:21.521Z,1.50
2022-09-07T12:04:32.401Z,1.55
2022-09-07T12:07:40.360Z,1.63
2022-09-07T12:10:49.404Z,1.55
2022-09-07T12:14:13.445Z,1.58
2022-09-07T12:17:08.154Z,1.60
2022-09-07T12:19:37.122Z,1.50
2022-09-07T12:22:05.947Z,1.73
2022-09-07T12:24:41.370Z,1.50
2022-09-07T12:27:39.133Z,1.45
2022-09-07T12:31:01.674Z,1.52
2022-09-07T12:33:34.467Z,1.45
2022-09-07T12:36:23.557Z,1.42
2022-09-07T12:39:21.545Z,1.73
2022-09-07T12:44:42.644Z,2.20
2022-09-07T12:47:31.414Z,1.73
2022-09-07T12:50:15.848Z,1.77
2022-09-07T12:53:08.848Z,1.80
2022-09-07T12:56:22.513Z,1.95
2022-09-07T12:59:19.804Z,1.55
2022-09-07T13:02:00.726Z,1.40
2022-09-07T13:05:02.945Z,1.20
2022-09-07T13:08:11.074Z,1.88
2022-09-07T13:10:42.116Z,1.17
2022-09-07T13:17:15.995Z,1.40
2022-09-07T13:20:19.144Z,1.80
2022-09-07T13:23:29.179Z,1.50
2022-09-07T13:26:01.362Z,1.48
2022-09-07T13:28:57.148Z,1.40
2022-09-07T13:31:49.508Z,1.40
2022-09-07T13:34:50.436Z,1.80
2022-09-07T13:37:25.385Z,1.60
2022-09-07T13:39:58.145Z,1.77
2022-09-07T13:42:31.867Z,1.70
2022-09-07T13:45:03.652Z,1.50
2022-09-07T13:47:54.942Z,1.60
2022-09-07T13:50:41.808Z,2.10
2022-09-07T13:53:39.992Z,2.25
2022-09-07T13:56:20.649Z,1.65
2022-09-07T13:58:52.893Z,1.85
2022-09-07T14:01:25.829Z,1.63
2022-09-07T14:03:59.442Z,1.60
2022-09-07T14:06:32.559Z,1.67
2022-09-07T14:09:06.401Z,1.58
2022-09-07T14:11:43.537Z,1.65
2022-09-07T14:14:20.271Z,1.92
2022-09-07T14:16:57.574Z,1.85
2022-09-07T14:19:37.768Z,1.27
2022-09-07T14:22:13.066Z,1.67
2022-09-07T14:24:50.542Z,1.83
2022-09-07T14:27:25.194Z,2.03
2022-09-07T14:29:54.173Z,1.77
2022-09-07T14:32:27.145Z,1.85
2022-09-07T14:34:55.952Z,1.50
2022-09-07T14:37:24.897Z,2.05
2022-09-07T14:39:56.295Z,1.60
2022-09-07T14:42:26.254Z,2.60
2022-09-07T14:45:20.838Z,1.35
2022-09-07T14:47:52.264Z,1.83
2022-09-07T14:50:24.166Z,1.65
2022-09-07T14:55:47.770Z,2.08
2022-09-07T14:58:25.342Z,1.60
2022-09-07T15:04:01.682Z,1.80
2022-09-07T15:09:37.783Z,1.60
2022-09-07T15:12:27.163Z,2.00
2022-09-07T15:14:58.297Z,1.85
2022-09-07T15:17:49.554Z,1.55
2022-09-07T15:20:41.458Z,1.55
2022-09-07T15:23:14.148Z,1.63
2022-09-07T15:25:49.637Z,2.20
2022-09-07T15:34:10.222Z,1.70
2022-09-07T15:36:40.807Z,1.88
2022-09-07T15:39:17.054Z,1.60
2022-09-07T15:41:46.458Z,1.50
2022-09-07T15:44:16.205Z,1.80
2022-09-07T15:47:43.293Z,1.80
2022-09-07T15:49:33.948Z,1.95
2022-09-07T15:52:06.162Z,1.40
2022-09-07T15:54:37.000Z,1.42
2022-09-07T15:59:58.964Z,1.45
2022-09-07T16:05:15.893Z,1.98
2022-09-07T16:10:34.111Z,1.80
2022-09-07T16:13:08.778Z,2.15
2022-09-07T16:15:46.416Z,1.70
2022-09-07T16:18:18.024Z,1.67
2022-09-07T16:20:52.164Z,1.92
2022-09-07T16:23:21.226Z,1.70
2022-09-07T16:26:01.066Z,1.58
2022-09-07T16:28:30.635Z,1.80
2022-09-07T16:31:05.798Z,1.38
2022-09-07T16:33:37.007Z,1.48
2022-09-07T16:36:09.362Z,1.30
2022-09-07T16:38:47.050Z,1.92
2022-09-07T16:41:19.995Z,1.40
2022-09-07T16:43:48.905Z,1.58
2022-09-07T16:46:20.880Z,1.70
2022-09-07T16:48:49.780Z,1.40
2022-09-07T16:51:21.211Z,1.58
2022-09-07T16:53:51.377Z,1.27
2022-09-07T16:56:22.150Z,1.40
2022-09-07T16:58:52.840Z,1.30
2022-09-07T17:01:25.942Z,1.40
2022-09-07T17:03:54.408Z,1.20
2022-09-07T17:06:25.723Z,1.50
2022-09-07T17:08:55.199Z,1.20
2022-09-07T17:11:26.413Z,1.30
2022-09-07T17:13:57.454Z,1.65
2022-09-07T17:16:29.961Z,1.02
2022-09-07T17:21:50.372Z,1.17
2022-09-07T17:24:19.802Z,1.15
2022-09-07T17:26:48.812Z,1.10
2022-09-07T17:29:16.853Z,1.10
2022-09-07T17:34:34.493Z,1.27
2022-09-07T17:37:03.341Z,1.02
2022-09-07T17:39:31.597Z,1.10
2022-09-07T17:42:00.912Z,1.38
2022-09-07T17:44:34.697Z,1.23
2022-09-07T17:47:07.844Z,1.35
2022-09-07T17:49:35.870Z,1.30
2022-09-07T17:52:04.979Z,1.38
2022-09-07T17:54:34.579Z,1.15
2022-09-07T17:57:03.211Z,1.27
2022-09-07T18:02:21.337Z,1.40
2022-09-07T18:04:49.965Z,1.50
2022-09-07T18:07:18.021Z,1.48
2022-09-07T18:09:46.548Z,1.42
2022-09-07T18:12:14.845Z,1.42
2022-09-07T18:14:43.872Z,1.40
2022-09-07T18:17:12.526Z,1.55
2022-09-07T18:19:41.929Z,1.23
2022-09-07T18:22:11.024Z,1.10
2022-09-07T18:24:39.593Z,1.63
2022-09-07T18:27:08.015Z,1.08
2022-09-07T18:29:36.340Z,1.17
2022-09-07T18:32:09.804Z,1.38
2022-09-07T18:34:41.638Z,1.20
2022-09-07T18:37:12.152Z,1.70
2022-09-07T18:39:40.868Z,1.60
2022-09-07T18:42:11.058Z,1.40
2022-09-07T18:47:29.189Z,1.95
2022-09-07T18:49:59.497Z,1.55
2022-09-07T18:55:17.574Z,1.40
2022-09-07T18:57:45.951Z,1.50
2022-09-07T19:00:15.168Z,1.23
2022-09-07T19:02:43.376Z,1.40
2022-09-07T19:08:03.443Z,1.20
2022-09-07T19:10:36.032Z,1.52
2022-09-07T19:13:04.643Z,1.73
2022-09-07T19:15:37.453Z,1.30
2022-09-07T19:18:08.729Z,1.55
2022-09-07T19:20:39.374Z,1.48
2022-09-07T19:23:07.904Z,1.75
2022-09-07T19:25:40.849Z,1.17
2022-09-07T19:28:09.379Z,1.42
2022-09-07T19:30:38.039Z,1.50
2022-09-07T19:33:10.089Z,1.40
2022-09-07T19:35:39.718Z,1.40
2022-09-07T19:38:08.185Z,1.80
2022-09-07T19:40:36.309Z,1.60
2022-09-07T19:43:05.663Z,1.40
2022-09-07T19:45:37.710Z,1.33
2022-09-07T19:48:06.645Z,1.50
2022-09-07T19:50:34.948Z,1.42
2022-09-07T19:53:04.540Z,1.60
2022-09-07T19:55:32.879Z,1.65
2022-09-07T19:58:01.067Z,1.55
2022-09-07T20:00:29.950Z,1.75
2022-09-07T20:02:58.793Z,1.27
2022-09-07T20:05:29.450Z,1.30
2022-09-07T20:07:58.274Z,1.60
2022-09-07T20:10:27.734Z,1.80
2022-09-07T20:12:56.017Z,2.00
2022-09-07T20:15:24.593Z,2.08
2022-09-07T20:17:53.823Z,1.40
2022-09-07T20:20:22.268Z,1.30
2022-09-07T20:22:50.773Z,1.50
2022-09-07T20:25:19.013Z,1.42
2022-09-07T20:27:48.586Z,1.40
2022-09-07T20:30:17.817Z,1.33
2022-09-07T20:32:46.580Z,1.30
2022-09-07T20:35:14.942Z,1.25
2022-09-07T20:37:43.495Z,1.17
2022-09-07T20:40:12.925Z,1.30
2022-09-07T20:42:41.670Z,1.25
2022-09-07T20:45:12.387Z,1.58
2022-09-07T20:47:40.773Z,1.58
2022-09-07T20:50:09.747Z,1.30
2022-09-07T20:52:37.868Z,1.42
2022-09-07T20:55:07.513Z,1.35
2022-09-07T20:57:37.838Z,1.20
2022-09-07T21:00:08.141Z,1.13
2022-09-07T21:02:37.933Z,1.80
2022-09-07T21:05:08.254Z,1.40
2022-09-07T21:07:38.716Z,1.27
2022-09-07T21:10:09.706Z,1.50
2022-09-07T21:12:38.069Z,1.60
2022-09-07T21:15:08.879Z,1.40
2022-09-07T21:17:38.701Z,1.30
2022-09-07T21:20:08.245Z,1.25
2022-09-07T21:22:36.390Z,1.60
2022-09-07T21:25:05.530Z,1.50
2022-09-07T21:27:38.767Z,1.20
2022-09-07T21:30:08.846Z,2.00
2022-09-07T21:32:40.355Z,1.45
2022-09-07T21:35:11.601Z,1.60
2022-09-07T21:37:39.950Z,1.42
2022-09-07T21:40:10.096Z,1.60
2022-09-07T21:42:39.533Z,1.60
2022-09-07T21:45:10.541Z,1.65
2022-09-07T21:47:39.962Z,1.50
2022-09-07T21:50:09.323Z,1.60
2022-09-07T21:52:38.893Z,1.55
2022-09-07T21:55:09.152Z,1.25
2022-09-07T21:57:37.336Z,1.40
2022-09-07T22:00:08.846Z,1.33
2022-09-07T22:02:38.697Z,1.45
2022-09-07T22:05:07.507Z,1.25
2022-09-07T22:07:36.133Z,1.48
2022-09-07T22:10:04.876Z,1.70
2022-09-07T22:12:33.479Z,1.30
2022-09-07T22:15:01.606Z,1.30
2022-09-07T22:17:30.031Z,1.45
2022-09-07T22:19:59.658Z,1.67
2022-09-07T22:22:27.781Z,1.35
2022-09-07T22:24:56.020Z,1.23
2022-09-07T22:27:24.309Z,1.95
2022-09-07T22:29:53.088Z,1.40
2022-09-07T22:32:21.281Z,1.23
2022-09-07T22:34:49.946Z,1.55
2022-09-07T22:37:19.582Z,1.48
2022-09-07T22:39:48.312Z,1.30
2022-09-07T22:42:17.128Z,1.70
2022-09-07T22:44:45.156Z,1.70
2022-09-07T22:47:14.339Z,1.40
2022-09-07T22:49:42.438Z,1.60
2022-09-07T22:52:11.499Z,1.73
2022-09-07T22:54:41.169Z,1.48
2022-09-07T22:57:09.722Z,1.45
2022-09-07T22:59:38.285Z,1.23
2022-09-07T23:02:06.437Z,1.65
2022-09-07T23:04:34.815Z,1.50
2022-09-07T23:07:03.522Z,2.17
2022-09-07T23:09:31.877Z,1.90
2022-09-07T23:12:01.594Z,1.90
2022-09-07T23:14:29.722Z,1.92
2022-09-07T23:16:58.813Z,1.90
2022-09-07T23:19:27.066Z,1.80
2022-09-07T23:21:55.192Z,2.08
2022-09-07T23:24:23.551Z,2.45
2022-09-07T23:26:51.549Z,3.20
2022-09-07T23:29:21.881Z,1.80
2022-09-07T23:31:51.158Z,1.83
2022-09-07T23:34:19.501Z,2.20
2022-09-07T23:36:47.668Z,2.13
2022-09-07T23:39:16.473Z,1.90
2022-09-07T23:41:44.781Z,1.80
2022-09-07T23:44:12.858Z,2.15
2022-09-07T23:46:42.548Z,1.92
2022-09-07T23:49:10.908Z,1.70
2022-09-07T23:51:39.076Z,2.10
2022-09-07T23:54:07.419Z,2.15
2022-09-07T23:56:38.138Z,1.80
2022-09-07T23:59:06.465Z,1.67
